Terminal Aerodrome Forecast
Issued by NWS

Home | Current Version | Previous Version | Text Only | Print | Product List | Glossary On
Versions: 1 2 3 4 5 6 7 8 9 10 11 12 13 14 15 16
000
FTUS46 KSEW 021126
TAFHQM
TAF
KHQM 021126Z 0212/0312 19010KT P6SM SCT020 BKN040 BKN070
      TEMPO 0212/0216 -SHRA BKN020 OVC045
     FM021600 21008KT P6SM -SHRA BKN015 OVC030
      TEMPO 0216/0220 4SM -SHRA
     FM022300 21008KT P6SM -SHRA SCT015 BKN035 OVC060
     FM030300 24008KT P6SM SCT030 BKN050=

USA.gov is the U.S. government's official web portal to all federal, state and local government web resources and services.